sensor_id;sensor_type;location;lat;lon;timestamp;P1;durP1;ratioP1;P2;durP2;ratioP2
6735;SDS011;3405;50.576;12.364;2023-04-24T00:02:20;0.70;;;0.70;;
6735;SDS011;3405;50.576;12.364;2023-04-24T00:04:46;0.90;;;0.90;;
6735;SDS011;3405;50.576;12.364;2023-04-24T00:07:13;0.85;;;0.82;;
6735;SDS011;3405;50.576;12.364;2023-04-24T00:09:42;0.70;;;0.70;;
6735;SDS011;3405;50.576;12.364;2023-04-24T00:12:08;0.73;;;0.73;;
6735;SDS011;3405;50.576;12.364;2023-04-24T00:14:34;0.68;;;0.68;;
6735;SDS011;3405;50.576;12.364;2023-04-24T00:17:01;0.93;;;0.90;;
6735;SDS011;3405;50.576;12.364;2023-04-24T00:19:27;1.33;;;0.70;;
6735;SDS011;3405;50.576;12.364;2023-04-24T00:21:53;0.80;;;0.80;;
6735;SDS011;3405;50.576;12.364;2023-04-24T00:24:20;0.68;;;0.68;;
6735;SDS011;3405;50.576;12.364;2023-04-24T00:26:46;1.23;;;0.80;;
6735;SDS011;3405;50.576;12.364;2023-04-24T00:29:12;0.80;;;0.80;;
6735;SDS011;3405;50.576;12.364;2023-04-24T00:31:38;0.70;;;0.70;;
6735;SDS011;3405;50.576;12.364;2023-04-24T00:34:04;2.17;;;0.80;;
6735;SDS011;3405;50.576;12.364;2023-04-24T00:36:30;0.80;;;0.80;;
6735;SDS011;3405;50.576;12.364;2023-04-24T00:38:57;1.02;;;0.80;;
6735;SDS011;3405;50.576;12.364;2023-04-24T00:41:24;1.05;;;0.70;;
6735;SDS011;3405;50.576;12.364;2023-04-24T00:43:50;0.60;;;0.60;;
6735;SDS011;3405;50.576;12.364;2023-04-24T00:46:17;1.25;;;0.70;;
6735;SDS011;3405;50.576;12.364;2023-04-24T00:48:43;2.13;;;0.68;;
6735;SDS011;3405;50.576;12.364;2023-04-24T00:51:09;0.60;;;0.50;;
6735;SDS011;3405;50.576;12.364;2023-04-24T00:53:35;0.68;;;0.68;;
6735;SDS011;3405;50.576;12.364;2023-04-24T00:56:01;1.65;;;1.00;;
6735;SDS011;3405;50.576;12.364;2023-04-24T00:58:27;0.80;;;0.80;;
6735;SDS011;3405;50.576;12.364;2023-04-24T01:00:55;0.93;;;0.93;;
6735;SDS011;3405;50.576;12.364;2023-04-24T01:03:22;0.55;;;0.55;;
6735;SDS011;3405;50.576;12.364;2023-04-24T01:05:51;0.70;;;0.70;;
6735;SDS011;3405;50.576;12.364;2023-04-24T01:08:16;1.17;;;0.80;;
6735;SDS011;3405;50.576;12.364;2023-04-24T01:10:42;0.70;;;0.70;;
6735;SDS011;3405;50.576;12.364;2023-04-24T01:13:10;0.73;;;0.73;;
6735;SDS011;3405;50.576;12.364;2023-04-24T01:15:36;0.80;;;0.80;;
6735;SDS011;3405;50.576;12.364;2023-04-24T01:18:02;0.50;;;0.50;;
6735;SDS011;3405;50.576;12.364;2023-04-24T01:20:28;0.60;;;0.60;;
6735;SDS011;3405;50.576;12.364;2023-04-24T01:22:55;1.88;;;0.68;;
6735;SDS011;3405;50.576;12.364;2023-04-24T01:25:21;0.75;;;0.70;;
6735;SDS011;3405;50.576;12.364;2023-04-24T01:27:47;0.57;;;0.57;;
6735;SDS011;3405;50.576;12.364;2023-04-24T01:30:13;0.70;;;0.70;;
6735;SDS011;3405;50.576;12.364;2023-04-24T01:32:39;1.60;;;0.70;;
6735;SDS011;3405;50.576;12.364;2023-04-24T01:35:06;0.60;;;0.60;;
6735;SDS011;3405;50.576;12.364;2023-04-24T01:37:32;0.77;;;0.77;;
6735;SDS011;3405;50.576;12.364;2023-04-24T01:39:58;1.13;;;0.63;;
6735;SDS011;3405;50.576;12.364;2023-04-24T01:42:24;0.70;;;0.70;;
6735;SDS011;3405;50.576;12.364;2023-04-24T01:44:51;0.50;;;0.50;;
6735;SDS011;3405;50.576;12.364;2023-04-24T01:47:17;0.60;;;0.60;;
6735;SDS011;3405;50.576;12.364;2023-04-24T01:49:43;0.60;;;0.60;;
6735;SDS011;3405;50.576;12.364;2023-04-24T01:52:08;0.50;;;0.50;;
6735;SDS011;3405;50.576;12.364;2023-04-24T01:54:34;0.57;;;0.57;;
6735;SDS011;3405;50.576;12.364;2023-04-24T01:57:00;0.55;;;0.55;;
6735;SDS011;3405;50.576;12.364;2023-04-24T01:59:27;0.70;;;0.70;;
6735;SDS011;3405;50.576;12.364;2023-04-24T02:01:53;0.73;;;0.70;;
6735;SDS011;3405;50.576;12.364;2023-04-24T02:04:19;0.70;;;0.70;;
6735;SDS011;3405;50.576;12.364;2023-04-24T02:06:45;0.65;;;0.57;;
6735;SDS011;3405;50.576;12.364;2023-04-24T02:09:11;0.60;;;0.60;;
6735;SDS011;3405;50.576;12.364;2023-04-24T02:11:37;0.50;;;0.50;;
6735;SDS011;3405;50.576;12.364;2023-04-24T02:14:03;0.60;;;0.60;;
6735;SDS011;3405;50.576;12.364;2023-04-24T02:16:29;0.50;;;0.50;;
6735;SDS011;3405;50.576;12.364;2023-04-24T02:18:57;0.50;;;0.50;;
6735;SDS011;3405;50.576;12.364;2023-04-24T02:21:23;0.45;;;0.45;;
6735;SDS011;3405;50.576;12.364;2023-04-24T02:23:50;0.60;;;0.60;;
6735;SDS011;3405;50.576;12.364;2023-04-24T02:26:16;0.60;;;0.60;;
6735;SDS011;3405;50.576;12.364;2023-04-24T02:28:43;0.57;;;0.57;;
6735;SDS011;3405;50.576;12.364;2023-04-24T02:31:09;0.82;;;0.50;;
6735;SDS011;3405;50.576;12.364;2023-04-24T02:33:35;0.60;;;0.60;;
6735;SDS011;3405;50.576;12.364;2023-04-24T02:36:01;1.25;;;0.55;;
6735;SDS011;3405;50.576;12.364;2023-04-24T02:38:27;0.57;;;0.57;;
6735;SDS011;3405;50.576;12.364;2023-04-24T02:40:53;0.75;;;0.70;;
6735;SDS011;3405;50.576;12.364;2023-04-24T02:43:19;0.73;;;0.60;;
6735;SDS011;3405;50.576;12.364;2023-04-24T02:45:45;0.50;;;0.50;;
6735;SDS011;3405;50.576;12.364;2023-04-24T02:48:11;0.50;;;0.50;;
6735;SDS011;3405;50.576;12.364;2023-04-24T02:50:37;0.60;;;0.60;;
6735;SDS011;3405;50.576;12.364;2023-04-24T02:53:03;0.85;;;0.70;;
6735;SDS011;3405;50.576;12.364;2023-04-24T02:55:29;0.60;;;0.60;;
6735;SDS011;3405;50.576;12.364;2023-04-24T02:57:55;0.68;;;0.68;;
6735;SDS011;3405;50.576;12.364;2023-04-24T03:00:21;0.50;;;0.50;;
6735;SDS011;3405;50.576;12.364;2023-04-24T03:02:47;0.47;;;0.47;;
6735;SDS011;3405;50.576;12.364;2023-04-24T03:05:14;0.43;;;0.43;;
6735;SDS011;3405;50.576;12.364;2023-04-24T03:07:40;0.40;;;0.40;;
6735;SDS011;3405;50.576;12.364;2023-04-24T03:10:06;0.47;;;0.47;;
6735;SDS011;3405;50.576;12.364;2023-04-24T03:12:32;0.65;;;0.65;;
6735;SDS011;3405;50.576;12.364;2023-04-24T03:14:58;0.60;;;0.60;;
6735;SDS011;3405;50.576;12.364;2023-04-24T03:17:24;0.40;;;0.40;;
6735;SDS011;3405;50.576;12.364;2023-04-24T03:19:50;0.40;;;0.40;;
6735;SDS011;3405;50.576;12.364;2023-04-24T03:22:16;0.77;;;0.77;;
6735;SDS011;3405;50.576;12.364;2023-04-24T03:24:42;0.80;;;0.80;;
6735;SDS011;3405;50.576;12.364;2023-04-24T03:27:08;0.45;;;0.45;;
6735;SDS011;3405;50.576;12.364;2023-04-24T03:29:33;0.95;;;0.82;;
6735;SDS011;3405;50.576;12.364;2023-04-24T03:31:59;1.65;;;0.95;;
6735;SDS011;3405;50.576;12.364;2023-04-24T03:34:25;2.45;;;1.10;;
6735;SDS011;3405;50.576;12.364;2023-04-24T03:36:51;4.50;;;1.50;;
6735;SDS011;3405;50.576;12.364;2023-04-24T03:39:17;5.35;;;2.00;;
6735;SDS011;3405;50.576;12.364;2023-04-24T03:41:43;5.03;;;2.45;;
6735;SDS011;3405;50.576;12.364;2023-04-24T03:44:09;10.57;;;2.67;;
6735;SDS011;3405;50.576;12.364;2023-04-24T03:46:35;11.57;;;2.90;;
6735;SDS011;3405;50.576;12.364;2023-04-24T03:49:01;13.80;;;3.60;;
6735;SDS011;3405;50.576;12.364;2023-04-24T03:51:27;10.38;;;3.15;;
6735;SDS011;3405;50.576;12.364;2023-04-24T03:53:55;9.57;;;3.25;;
6735;SDS011;3405;50.576;12.364;2023-04-24T03:56:21;14.95;;;3.72;;
6735;SDS011;3405;50.576;12.364;2023-04-24T03:58:46;18.98;;;5.15;;
6735;SDS011;3405;50.576;12.364;2023-04-24T04:01:12;22.83;;;6.50;;
6735;SDS011;3405;50.576;12.364;2023-04-24T04:03:40;29.88;;;7.95;;
6735;SDS011;3405;50.576;12.364;2023-04-24T04:06:06;34.90;;;10.38;;
6735;SDS011;3405;50.576;12.364;2023-04-24T04:08:32;32.42;;;10.25;;
6735;SDS011;3405;50.576;12.364;2023-04-24T04:10:58;52.25;;;12.23;;
6735;SDS011;3405;50.576;12.364;2023-04-24T04:13:24;47.50;;;12.10;;
6735;SDS011;3405;50.576;12.364;2023-04-24T04:15:50;43.22;;;11.30;;
6735;SDS011;3405;50.576;12.364;2023-04-24T04:18:16;38.17;;;11.07;;
6735;SDS011;3405;50.576;12.364;2023-04-24T04:20:42;37.28;;;10.57;;
6735;SDS011;3405;50.576;12.364;2023-04-24T04:23:08;35.90;;;11.20;;
6735;SDS011;3405;50.576;12.364;2023-04-24T04:25:34;36.78;;;11.15;;
6735;SDS011;3405;50.576;12.364;2023-04-24T04:28:00;38.42;;;11.55;;
6735;SDS011;3405;50.576;12.364;2023-04-24T04:30:26;30.25;;;10.40;;
6735;SDS011;3405;50.576;12.364;2023-04-24T04:32:54;30.98;;;9.65;;
6735;SDS011;3405;50.576;12.364;2023-04-24T04:35:21;30.67;;;9.27;;
6735;SDS011;3405;50.576;12.364;2023-04-24T04:37:47;28.52;;;9.20;;
6735;SDS011;3405;50.576;12.364;2023-04-24T04:40:13;24.17;;;8.43;;
6735;SDS011;3405;50.576;12.364;2023-04-24T04:42:39;25.70;;;8.88;;
6735;SDS011;3405;50.576;12.364;2023-04-24T04:45:06;25.17;;;8.60;;
6735;SDS011;3405;50.576;12.364;2023-04-24T04:47:33;24.95;;;8.20;;
6735;SDS011;3405;50.576;12.364;2023-04-24T04:49:59;21.38;;;7.05;;
6735;SDS011;3405;50.576;12.364;2023-04-24T04:52:25;24.27;;;8.30;;
6735;SDS011;3405;50.576;12.364;2023-04-24T04:54:52;21.77;;;7.55;;
6735;SDS011;3405;50.576;12.364;2023-04-24T04:57:18;23.50;;;7.07;;
6735;SDS011;3405;50.576;12.364;2023-04-24T04:59:44;24.27;;;6.97;;
6735;SDS011;3405;50.576;12.364;2023-04-24T05:02:10;21.25;;;7.30;;
6735;SDS011;3405;50.576;12.364;2023-04-24T05:04:36;24.20;;;7.13;;
6735;SDS011;3405;50.576;12.364;2023-04-24T05:07:02;19.63;;;6.28;;
6735;SDS011;3405;50.576;12.364;2023-04-24T05:09:28;20.95;;;7.07;;
6735;SDS011;3405;50.576;12.364;2023-04-24T05:11:54;23.23;;;6.20;;
6735;SDS011;3405;50.576;12.364;2023-04-24T05:14:20;16.15;;;5.93;;
6735;SDS011;3405;50.576;12.364;2023-04-24T05:16:46;16.63;;;5.85;;
6735;SDS011;3405;50.576;12.364;2023-04-24T05:19:12;16.48;;;6.03;;
6735;SDS011;3405;50.576;12.364;2023-04-24T05:21:39;17.95;;;6.80;;
6735;SDS011;3405;50.576;12.364;2023-04-24T05:24:05;17.30;;;6.50;;
6735;SDS011;3405;50.576;12.364;2023-04-24T05:26:31;13.52;;;5.38;;
6735;SDS011;3405;50.576;12.364;2023-04-24T05:28:57;12.63;;;5.65;;
6735;SDS011;3405;50.576;12.364;2023-04-24T05:31:23;13.25;;;5.47;;
6735;SDS011;3405;50.576;12.364;2023-04-24T05:33:50;14.77;;;5.43;;
6735;SDS011;3405;50.576;12.364;2023-04-24T05:36:16;15.20;;;5.80;;
6735;SDS011;3405;50.576;12.364;2023-04-24T05:38:42;15.20;;;5.95;;
6735;SDS011;3405;50.576;12.364;2023-04-24T05:41:08;12.98;;;4.68;;
6735;SDS011;3405;50.576;12.364;2023-04-24T05:43:34;13.38;;;4.90;;
6735;SDS011;3405;50.576;12.364;2023-04-24T05:45:59;15.63;;;5.43;;
6735;SDS011;3405;50.576;12.364;2023-04-24T05:48:25;16.27;;;6.15;;
6735;SDS011;3405;50.576;12.364;2023-04-24T05:50:51;11.00;;;4.15;;
6735;SDS011;3405;50.576;12.364;2023-04-24T05:53:18;11.65;;;4.22;;
6735;SDS011;3405;50.576;12.364;2023-04-24T05:55:44;14.40;;;5.20;;
6735;SDS011;3405;50.576;12.364;2023-04-24T05:58:10;11.27;;;4.68;;
6735;SDS011;3405;50.576;12.364;2023-04-24T06:00:36;13.50;;;5.53;;
6735;SDS011;3405;50.576;12.364;2023-04-24T06:03:02;16.80;;;5.03;;
6735;SDS011;3405;50.576;12.364;2023-04-24T06:05:28;15.27;;;4.93;;
6735;SDS011;3405;50.576;12.364;2023-04-24T06:07:55;14.23;;;4.90;;
6735;SDS011;3405;50.576;12.364;2023-04-24T06:10:21;9.25;;;4.05;;
6735;SDS011;3405;50.576;12.364;2023-04-24T06:12:47;11.25;;;4.30;;
6735;SDS011;3405;50.576;12.364;2023-04-24T06:15:13;12.27;;;4.47;;
6735;SDS011;3405;50.576;12.364;2023-04-24T06:17:39;11.70;;;4.35;;
6735;SDS011;3405;50.576;12.364;2023-04-24T06:20:05;13.20;;;4.32;;
6735;SDS011;3405;50.576;12.364;2023-04-24T06:22:32;12.10;;;4.28;;
6735;SDS011;3405;50.576;12.364;2023-04-24T06:24:59;11.38;;;4.10;;
6735;SDS011;3405;50.576;12.364;2023-04-24T06:27:25;10.63;;;3.80;;
6735;SDS011;3405;50.576;12.364;2023-04-24T06:29:51;12.35;;;4.45;;
6735;SDS011;3405;50.576;12.364;2023-04-24T06:32:19;9.73;;;4.15;;
6735;SDS011;3405;50.576;12.364;2023-04-24T06:34:45;8.10;;;3.92;;
6735;SDS011;3405;50.576;12.364;2023-04-24T06:37:11;11.30;;;3.70;;
6735;SDS011;3405;50.576;12.364;2023-04-24T06:39:37;9.23;;;3.55;;
6735;SDS011;3405;50.576;12.364;2023-04-24T06:42:02;7.72;;;3.53;;
6735;SDS011;3405;50.576;12.364;2023-04-24T06:44:28;9.02;;;3.45;;
6735;SDS011;3405;50.576;12.364;2023-04-24T06:46:54;10.07;;;3.55;;
6735;SDS011;3405;50.576;12.364;2023-04-24T06:49:20;9.13;;;4.30;;
6735;SDS011;3405;50.576;12.364;2023-04-24T06:51:46;8.57;;;3.53;;
6735;SDS011;3405;50.576;12.364;2023-04-24T06:54:12;9.98;;;3.63;;
6735;SDS011;3405;50.576;12.364;2023-04-24T06:56:38;7.28;;;3.80;;
6735;SDS011;3405;50.576;12.364;2023-04-24T06:59:04;6.53;;;3.17;;
6735;SDS011;3405;50.576;12.364;2023-04-24T07:01:30;6.40;;;3.28;;
6735;SDS011;3405;50.576;12.364;2023-04-24T07:03:56;8.07;;;3.28;;
6735;SDS011;3405;50.576;12.364;2023-04-24T07:06:22;6.22;;;3.22;;
6735;SDS011;3405;50.576;12.364;2023-04-24T07:08:48;5.15;;;2.78;;
6735;SDS011;3405;50.576;12.364;2023-04-24T07:11:14;8.55;;;3.55;;
6735;SDS011;3405;50.576;12.364;2023-04-24T07:13:40;5.88;;;3.03;;
6735;SDS011;3405;50.576;12.364;2023-04-24T07:16:07;7.68;;;3.28;;
6735;SDS011;3405;50.576;12.364;2023-04-24T07:18:33;6.93;;;2.78;;
6735;SDS011;3405;50.576;12.364;2023-04-24T07:20:59;6.68;;;3.00;;
6735;SDS011;3405;50.576;12.364;2023-04-24T07:23:25;6.47;;;3.28;;
6735;SDS011;3405;50.576;12.364;2023-04-24T07:25:51;7.70;;;3.17;;
6735;SDS011;3405;50.576;12.364;2023-04-24T07:28:17;6.72;;;3.03;;
6735;SDS011;3405;50.576;12.364;2023-04-24T07:30:43;5.78;;;2.78;;
6735;SDS011;3405;50.576;12.364;2023-04-24T07:33:09;5.43;;;2.55;;
6735;SDS011;3405;50.576;12.364;2023-04-24T07:35:37;3.22;;;2.17;;
6735;SDS011;3405;50.576;12.364;2023-04-24T07:38:03;6.22;;;2.90;;
6735;SDS011;3405;50.576;12.364;2023-04-24T07:40:29;5.75;;;2.55;;
6735;SDS011;3405;50.576;12.364;2023-04-24T07:42:55;4.95;;;2.50;;
6735;SDS011;3405;50.576;12.364;2023-04-24T07:45:21;6.13;;;2.72;;
6735;SDS011;3405;50.576;12.364;2023-04-24T07:47:48;6.03;;;2.35;;
6735;SDS011;3405;50.576;12.364;2023-04-24T07:50:15;5.20;;;2.47;;
6735;SDS011;3405;50.576;12.364;2023-04-24T07:52:41;5.30;;;2.35;;
6735;SDS011;3405;50.576;12.364;2023-04-24T07:55:07;4.72;;;2.42;;
6735;SDS011;3405;50.576;12.364;2023-04-24T07:57:33;3.85;;;2.30;;
6735;SDS011;3405;50.576;12.364;2023-04-24T07:59:59;3.60;;;2.20;;
6735;SDS011;3405;50.576;12.364;2023-04-24T08:02:25;3.75;;;2.40;;
6735;SDS011;3405;50.576;12.364;2023-04-24T08:04:54;4.32;;;2.42;;
6735;SDS011;3405;50.576;12.364;2023-04-24T08:07:21;2.80;;;1.70;;
6735;SDS011;3405;50.576;12.364;2023-04-24T08:09:47;3.47;;;2.05;;
6735;SDS011;3405;50.576;12.364;2023-04-24T08:12:13;3.40;;;1.90;;
6735;SDS011;3405;50.576;12.364;2023-04-24T08:14:39;4.63;;;2.33;;
6735;SDS011;3405;50.576;12.364;2023-04-24T08:17:05;5.50;;;2.40;;
6735;SDS011;3405;50.576;12.364;2023-04-24T08:19:30;4.57;;;2.00;;
6735;SDS011;3405;50.576;12.364;2023-04-24T08:21:56;3.72;;;2.00;;
6735;SDS011;3405;50.576;12.364;2023-04-24T08:24:22;4.72;;;1.85;;
6735;SDS011;3405;50.576;12.364;2023-04-24T08:26:48;3.35;;;2.08;;
6735;SDS011;3405;50.576;12.364;2023-04-24T08:29:16;3.72;;;2.00;;
6735;SDS011;3405;50.576;12.364;2023-04-24T08:31:42;4.85;;;2.00;;
6735;SDS011;3405;50.576;12.364;2023-04-24T08:34:09;3.55;;;1.90;;
6735;SDS011;3405;50.576;12.364;2023-04-24T08:36:35;4.90;;;1.98;;
6735;SDS011;3405;50.576;12.364;2023-04-24T08:39:00;4.13;;;1.80;;
6735;SDS011;3405;50.576;12.364;2023-04-24T08:41:26;4.95;;;2.20;;
6735;SDS011;3405;50.576;12.364;2023-04-24T08:43:52;3.83;;;1.77;;
6735;SDS011;3405;50.576;12.364;2023-04-24T08:46:20;3.20;;;1.67;;
6735;SDS011;3405;50.576;12.364;2023-04-24T08:48:46;3.67;;;1.95;;
6735;SDS011;3405;50.576;12.364;2023-04-24T08:51:12;3.72;;;1.90;;
6735;SDS011;3405;50.576;12.364;2023-04-24T08:53:38;2.70;;;1.63;;
6735;SDS011;3405;50.576;12.364;2023-04-24T08:56:04;2.78;;;1.75;;
6735;SDS011;3405;50.576;12.364;2023-04-24T08:58:31;3.30;;;1.65;;
6735;SDS011;3405;50.576;12.364;2023-04-24T09:00:57;2.88;;;1.67;;
6735;SDS011;3405;50.576;12.364;2023-04-24T09:03:23;3.35;;;1.55;;
6735;SDS011;3405;50.576;12.364;2023-04-24T09:05:50;2.97;;;1.60;;
6735;SDS011;3405;50.576;12.364;2023-04-24T09:08:16;4.15;;;1.90;;
6735;SDS011;3405;50.576;12.364;2023-04-24T09:10:43;3.58;;;1.80;;
6735;SDS011;3405;50.576;12.364;2023-04-24T09:13:09;2.97;;;1.40;;
6735;SDS011;3405;50.576;12.364;2023-04-24T09:15:35;3.72;;;1.60;;
6735;SDS011;3405;50.576;12.364;2023-04-24T09:18:01;3.90;;;1.80;;
6735;SDS011;3405;50.576;12.364;2023-04-24T09:20:28;2.75;;;1.40;;
6735;SDS011;3405;50.576;12.364;2023-04-24T09:22:54;3.13;;;1.70;;
6735;SDS011;3405;50.576;12.364;2023-04-24T09:25:20;2.65;;;1.40;;
6735;SDS011;3405;50.576;12.364;2023-04-24T09:27:46;2.83;;;1.58;;
6735;SDS011;3405;50.576;12.364;2023-04-24T09:30:13;2.10;;;1.50;;
6735;SDS011;3405;50.576;12.364;2023-04-24T09:32:39;3.47;;;1.48;;
6735;SDS011;3405;50.576;12.364;2023-04-24T09:35:07;2.40;;;1.60;;
6735;SDS011;3405;50.576;12.364;2023-04-24T09:37:43;2.08;;;1.30;;
6735;SDS011;3405;50.576;12.364;2023-04-24T09:40:17;1.73;;;1.30;;
6735;SDS011;3405;50.576;12.364;2023-04-24T09:42:51;1.88;;;1.30;;
6735;SDS011;3405;50.576;12.364;2023-04-24T09:45:17;2.40;;;1.63;;
6735;SDS011;3405;50.576;12.364;2023-04-24T09:47:43;2.95;;;1.33;;
6735;SDS011;3405;50.576;12.364;2023-04-24T09:50:13;1.92;;;1.20;;
6735;SDS011;3405;50.576;12.364;2023-04-24T09:52:40;3.00;;;1.67;;
6735;SDS011;3405;50.576;12.364;2023-04-24T09:55:39;1.55;;;1.10;;
6735;SDS011;3405;50.576;12.364;2023-04-24T09:57:58;2.08;;;1.08;;
6735;SDS011;3405;50.576;12.364;2023-04-24T10:00:27;2.53;;;1.25;;
6735;SDS011;3405;50.576;12.364;2023-04-24T10:02:56;1.63;;;1.17;;
6735;SDS011;3405;50.576;12.364;2023-04-24T10:05:32;2.95;;;1.10;;
6735;SDS011;3405;50.576;12.364;2023-04-24T10:10:27;2.72;;;1.40;;
6735;SDS011;3405;50.576;12.364;2023-04-24T10:12:54;2.55;;;1.08;;
6735;SDS011;3405;50.576;12.364;2023-04-24T10:15:20;1.42;;;1.02;;
6735;SDS011;3405;50.576;12.364;2023-04-24T10:17:47;2.00;;;1.08;;
6735;SDS011;3405;50.576;12.364;2023-04-24T10:20:17;1.52;;;1.08;;
6735;SDS011;3405;50.576;12.364;2023-04-24T10:22:43;1.90;;;1.10;;
6735;SDS011;3405;50.576;12.364;2023-04-24T10:25:11;2.30;;;1.20;;
6735;SDS011;3405;50.576;12.364;2023-04-24T10:27:37;1.67;;;1.00;;
6735;SDS011;3405;50.576;12.364;2023-04-24T10:30:03;1.13;;;1.00;;
6735;SDS011;3405;50.576;12.364;2023-04-24T10:32:29;1.23;;;0.95;;
6735;SDS011;3405;50.576;12.364;2023-04-24T10:34:55;1.90;;;1.20;;
6735;SDS011;3405;50.576;12.364;2023-04-24T10:37:22;1.63;;;1.08;;
6735;SDS011;3405;50.576;12.364;2023-04-24T10:39:48;1.42;;;1.00;;
6735;SDS011;3405;50.576;12.364;2023-04-24T10:42:15;0.88;;;0.88;;
6735;SDS011;3405;50.576;12.364;2023-04-24T10:44:41;1.35;;;1.08;;
6735;SDS011;3405;50.576;12.364;2023-04-24T10:47:12;1.35;;;1.10;;
6735;SDS011;3405;50.576;12.364;2023-04-24T10:49:39;1.98;;;1.25;;
6735;SDS011;3405;50.576;12.364;2023-04-24T10:52:05;1.45;;;0.90;;
6735;SDS011;3405;50.576;12.364;2023-04-24T10:54:35;0.85;;;0.85;;
6735;SDS011;3405;50.576;12.364;2023-04-24T10:59:47;0.93;;;0.90;;
6735;SDS011;3405;50.576;12.364;2023-04-24T11:02:16;0.63;;;0.63;;
6735;SDS011;3405;50.576;12.364;2023-04-24T11:04:42;0.80;;;0.80;;
6735;SDS011;3405;50.576;12.364;2023-04-24T11:07:09;1.10;;;0.90;;
6735;SDS011;3405;50.576;12.364;2023-04-24T11:09:35;1.50;;;0.95;;
6735;SDS011;3405;50.576;12.364;2023-04-24T11:12:08;2.03;;;1.08;;
6735;SDS011;3405;50.576;12.364;2023-04-24T11:17:34;1.10;;;1.00;;
6735;SDS011;3405;50.576;12.364;2023-04-24T11:20:03;0.80;;;0.80;;
6735;SDS011;3405;50.576;12.364;2023-04-24T11:22:32;1.52;;;0.98;;
6735;SDS011;3405;50.576;12.364;2023-04-24T11:24:59;1.67;;;0.80;;
6735;SDS011;3405;50.576;12.364;2023-04-24T11:27:29;0.70;;;0.70;;
6735;SDS011;3405;50.576;12.364;2023-04-24T11:32:41;1.20;;;0.80;;
6735;SDS011;3405;50.576;12.364;2023-04-24T11:35:20;1.05;;;0.90;;
6735;SDS011;3405;50.576;12.364;2023-04-24T11:37:47;0.82;;;0.70;;
6735;SDS011;3405;50.576;12.364;2023-04-24T11:40:17;1.17;;;0.90;;
6735;SDS011;3405;50.576;12.364;2023-04-24T11:42:45;0.70;;;0.70;;
6735;SDS011;3405;50.576;12.364;2023-04-24T11:47:40;1.20;;;0.77;;
6735;SDS011;3405;50.576;12.364;2023-04-24T11:50:07;0.70;;;0.70;;
6735;SDS011;3405;50.576;12.364;2023-04-24T11:52:36;1.52;;;0.70;;
6735;SDS011;3405;50.576;12.364;2023-04-24T11:55:02;0.70;;;0.60;;
6735;SDS011;3405;50.576;12.364;2023-04-24T11:57:29;0.60;;;0.50;;
6735;SDS011;3405;50.576;12.364;2023-04-24T11:59:59;1.00;;;0.90;;
6735;SDS011;3405;50.576;12.364;2023-04-24T12:02:26;0.95;;;0.85;;
6735;SDS011;3405;50.576;12.364;2023-04-24T12:04:52;1.33;;;0.80;;
6735;SDS011;3405;50.576;12.364;2023-04-24T12:07:19;0.80;;;0.80;;
6735;SDS011;3405;50.576;12.364;2023-04-24T12:09:46;0.60;;;0.60;;
6735;SDS011;3405;50.576;12.364;2023-04-24T12:12:12;0.70;;;0.70;;
6735;SDS011;3405;50.576;12.364;2023-04-24T12:14:42;0.80;;;0.80;;
6735;SDS011;3405;50.576;12.364;2023-04-24T12:17:09;0.93;;;0.90;;
6735;SDS011;3405;50.576;12.364;2023-04-24T12:19:34;0.95;;;0.82;;
6735;SDS011;3405;50.576;12.364;2023-04-24T12:22:01;0.98;;;0.60;;
6735;SDS011;3405;50.576;12.364;2023-04-24T12:24:27;0.60;;;0.60;;
6735;SDS011;3405;50.576;12.364;2023-04-24T12:26:53;1.10;;;1.00;;
6735;SDS011;3405;50.576;12.364;2023-04-24T12:29:20;0.90;;;0.90;;
6735;SDS011;3405;50.576;12.364;2023-04-24T12:31:46;0.68;;;0.68;;
6735;SDS011;3405;50.576;12.364;2023-04-24T12:34:21;0.77;;;0.77;;
6735;SDS011;3405;50.576;12.364;2023-04-24T12:36:48;0.65;;;0.65;;
6735;SDS011;3405;50.576;12.364;2023-04-24T12:39:17;0.70;;;0.60;;
6735;SDS011;3405;50.576;12.364;2023-04-24T12:41:50;0.70;;;0.70;;
6735;SDS011;3405;50.576;12.364;2023-04-24T12:44:16;0.70;;;0.70;;
6735;SDS011;3405;50.576;12.364;2023-04-24T12:46:43;0.60;;;0.60;;
6735;SDS011;3405;50.576;12.364;2023-04-24T12:49:09;0.80;;;0.75;;
6735;SDS011;3405;50.576;12.364;2023-04-24T12:51:35;1.80;;;0.60;;
6735;SDS011;3405;50.576;12.364;2023-04-24T12:54:01;0.77;;;0.77;;
6735;SDS011;3405;50.576;12.364;2023-04-24T12:56:27;1.17;;;0.60;;
6735;SDS011;3405;50.576;12.364;2023-04-24T12:58:53;0.68;;;0.68;;
6735;SDS011;3405;50.576;12.364;2023-04-24T13:01:19;1.50;;;0.82;;
6735;SDS011;3405;50.576;12.364;2023-04-24T13:03:45;0.80;;;0.80;;
6735;SDS011;3405;50.576;12.364;2023-04-24T13:06:11;1.15;;;0.60;;
6735;SDS011;3405;50.576;12.364;2023-04-24T13:08:37;0.77;;;0.77;;
6735;SDS011;3405;50.576;12.364;2023-04-24T13:11:03;0.98;;;0.73;;
6735;SDS011;3405;50.576;12.364;2023-04-24T13:13:29;0.63;;;0.63;;
6735;SDS011;3405;50.576;12.364;2023-04-24T13:15:55;0.70;;;0.70;;
6735;SDS011;3405;50.576;12.364;2023-04-24T13:18:21;0.93;;;0.70;;
6735;SDS011;3405;50.576;12.364;2023-04-24T13:20:47;0.55;;;0.55;;
6735;SDS011;3405;50.576;12.364;2023-04-24T13:23:13;0.65;;;0.60;;
6735;SDS011;3405;50.576;12.364;2023-04-24T13:25:40;1.45;;;0.80;;
6735;SDS011;3405;50.576;12.364;2023-04-24T13:28:06;0.98;;;0.77;;
6735;SDS011;3405;50.576;12.364;2023-04-24T13:30:32;1.00;;;0.68;;
6735;SDS011;3405;50.576;12.364;2023-04-24T13:32:59;2.05;;;0.77;;
6735;SDS011;3405;50.576;12.364;2023-04-24T13:35:25;0.80;;;0.80;;
6735;SDS011;3405;50.576;12.364;2023-04-24T13:37:51;1.50;;;0.95;;
6735;SDS011;3405;50.576;12.364;2023-04-24T13:40:17;1.70;;;1.02;;
6735;SDS011;3405;50.576;12.364;2023-04-24T13:42:43;1.80;;;0.82;;
6735;SDS011;3405;50.576;12.364;2023-04-24T13:45:09;0.80;;;0.80;;
6735;SDS011;3405;50.576;12.364;2023-04-24T13:47:35;0.70;;;0.70;;
6735;SDS011;3405;50.576;12.364;2023-04-24T13:50:01;1.00;;;0.90;;
6735;SDS011;3405;50.576;12.364;2023-04-24T13:52:27;0.70;;;0.70;;
6735;SDS011;3405;50.576;12.364;2023-04-24T13:54:53;1.58;;;0.80;;
6735;SDS011;3405;50.576;12.364;2023-04-24T13:57:20;1.42;;;0.90;;
6735;SDS011;3405;50.576;12.364;2023-04-24T13:59:46;0.85;;;0.85;;
6735;SDS011;3405;50.576;12.364;2023-04-24T14:02:12;0.80;;;0.80;;
6735;SDS011;3405;50.576;12.364;2023-04-24T14:04:38;1.05;;;0.68;;
6735;SDS011;3405;50.576;12.364;2023-04-24T14:07:04;0.60;;;0.60;;
6735;SDS011;3405;50.576;12.364;2023-04-24T14:09:30;1.58;;;0.70;;
6735;SDS011;3405;50.576;12.364;2023-04-24T14:11:56;1.40;;;0.80;;
6735;SDS011;3405;50.576;12.364;2023-04-24T14:14:22;2.05;;;1.27;;
6735;SDS011;3405;50.576;12.364;2023-04-24T14:16:48;0.85;;;0.68;;
6735;SDS011;3405;50.576;12.364;2023-04-24T14:19:14;0.80;;;0.80;;
6735;SDS011;3405;50.576;12.364;2023-04-24T14:21:40;0.95;;;0.63;;
6735;SDS011;3405;50.576;12.364;2023-04-24T14:24:06;1.65;;;0.95;;
6735;SDS011;3405;50.576;12.364;2023-04-24T14:26:32;2.70;;;0.90;;
6735;SDS011;3405;50.576;12.364;2023-04-24T14:28:58;1.85;;;0.75;;
6735;SDS011;3405;50.576;12.364;2023-04-24T14:31:24;1.05;;;0.75;;
6735;SDS011;3405;50.576;12.364;2023-04-24T14:33:50;3.25;;;0.90;;
6735;SDS011;3405;50.576;12.364;2023-04-24T14:36:15;1.17;;;0.85;;
6735;SDS011;3405;50.576;12.364;2023-04-24T14:38:41;1.10;;;0.90;;
6735;SDS011;3405;50.576;12.364;2023-04-24T14:41:07;1.27;;;1.17;;
6735;SDS011;3405;50.576;12.364;2023-04-24T14:43:35;1.25;;;0.73;;
6735;SDS011;3405;50.576;12.364;2023-04-24T14:46:01;1.27;;;0.82;;
6735;SDS011;3405;50.576;12.364;2023-04-24T14:48:27;2.10;;;1.00;;
6735;SDS011;3405;50.576;12.364;2023-04-24T14:50:53;1.00;;;0.88;;
6735;SDS011;3405;50.576;12.364;2023-04-24T14:53:19;1.13;;;0.82;;
6735;SDS011;3405;50.576;12.364;2023-04-24T14:55:45;2.08;;;1.15;;
6735;SDS011;3405;50.576;12.364;2023-04-24T14:58:11;0.75;;;0.75;;
6735;SDS011;3405;50.576;12.364;2023-04-24T15:00:37;0.93;;;0.70;;
6735;SDS011;3405;50.576;12.364;2023-04-24T15:03:03;0.88;;;0.68;;
6735;SDS011;3405;50.576;12.364;2023-04-24T15:05:29;0.65;;;0.65;;
6735;SDS011;3405;50.576;12.364;2023-04-24T15:07:55;0.85;;;0.85;;